sensor_id;sensor_type;location;lat;lon;timestamp;P1;durP1;ratioP1;P2;durP2;ratioP2
74741;SDS011;63265;48.288;16.314;2024-02-04T20:53:59;2.7;;;1.7;;
74741;SDS011;63265;48.288;16.314;2024-02-04T20:54:01;2.7;;;1.7;;
74741;SDS011;63265;48.288;16.314;2024-02-04T20:55:01;2.7;;;1.7;;
74741;SDS011;63265;48.288;16.314;2024-02-04T20:56:01;2.7;;;1.7;;
74741;SDS011;63265;48.288;16.314;2024-02-04T20:57:01;2.7;;;1.7;;
74741;SDS011;63265;48.288;16.314;2024-02-04T20:58:01;3.0;;;1.7;;
74741;SDS011;63265;48.288;16.314;2024-02-04T20:59:01;3.0;;;1.7;;
74741;SDS011;63265;48.288;16.314;2024-02-04T21:00:01;3.0;;;1.7;;
74741;SDS011;63265;48.288;16.314;2024-02-04T21:01:01;3.0;;;1.7;;
74741;SDS011;63265;48.288;16.314;2024-02-04T21:02:01;3.0;;;1.7;;
74741;SDS011;63265;48.288;16.314;2024-02-04T21:03:01;2.7;;;1.4;;
74741;SDS011;63265;48.288;16.314;2024-02-04T21:04:01;2.7;;;1.4;;
74741;SDS011;63265;48.288;16.314;2024-02-04T21:05:01;2.7;;;1.4;;
74741;SDS011;63265;48.288;16.314;2024-02-04T21:06:01;2.7;;;1.4;;
74741;SDS011;63265;48.288;16.314;2024-02-04T21:07:01;2.7;;;1.4;;
74741;SDS011;63265;48.288;16.314;2024-02-04T21:08:03;4.0;;;1.7;;
74741;SDS011;63265;48.288;16.314;2024-02-04T21:09:01;4.0;;;1.7;;
74741;SDS011;63265;48.288;16.314;2024-02-04T21:10:01;4.0;;;1.7;;
74741;SDS011;63265;48.288;16.314;2024-02-04T21:11:01;4.0;;;1.7;;
74741;SDS011;63265;48.288;16.314;2024-02-04T21:12:01;4.0;;;1.7;;
74741;SDS011;63265;48.288;16.314;2024-02-04T21:16:03;2.3;;;1.4;;
74741;SDS011;63265;48.288;16.314;2024-02-04T21:17:00;2.3;;;1.4;;
74741;SDS011;63265;48.288;16.314;2024-02-04T21:18:00;3.4;;;1.4;;
74741;SDS011;63265;48.288;16.314;2024-02-04T21:19:00;3.4;;;1.4;;
74741;SDS011;63265;48.288;16.314;2024-02-04T21:20:01;3.4;;;1.4;;
74741;SDS011;63265;48.288;16.314;2024-02-04T21:21:00;3.4;;;1.4;;
74741;SDS011;63265;48.288;16.314;2024-02-04T21:22:00;3.4;;;1.4;;
74741;SDS011;63265;48.288;16.314;2024-02-04T21:23:00;1.5;;;1.3;;
74741;SDS011;63265;48.288;16.314;2024-02-04T21:24:00;1.5;;;1.3;;
74741;SDS011;63265;48.288;16.314;2024-02-04T21:25:02;1.5;;;1.3;;
74741;SDS011;63265;48.288;16.314;2024-02-04T21:26:01;1.5;;;1.3;;
74741;SDS011;63265;48.288;16.314;2024-02-04T21:27:00;1.5;;;1.3;;
74741;SDS011;63265;48.288;16.314;2024-02-04T21:28:00;2.0;;;1.2;;
74741;SDS011;63265;48.288;16.314;2024-02-04T21:31:01;2.0;;;1.2;;
74741;SDS011;76291;48.288;16.314;2024-02-04T21:32:01;2.0;;;1.2;;
74741;SDS011;76291;48.288;16.314;2024-02-04T21:33:01;2.6;;;1.5;;
74741;SDS011;76291;48.288;16.314;2024-02-04T21:34:01;2.6;;;1.5;;
74741;SDS011;76291;48.288;16.314;2024-02-04T21:35:01;2.6;;;1.5;;
74741;SDS011;76291;48.288;16.314;2024-02-04T21:36:01;2.6;;;1.5;;
74741;SDS011;76291;48.288;16.314;2024-02-04T21:37:04;2.6;;;1.5;;
74741;SDS011;76291;48.288;16.314;2024-02-04T21:38:01;1.8;;;1.4;;
74741;SDS011;76291;48.288;16.314;2024-02-04T21:39:01;1.8;;;1.4;;
74741;SDS011;76291;48.288;16.314;2024-02-04T21:40:01;1.8;;;1.4;;
74741;SDS011;76291;48.288;16.314;2024-02-04T21:41:01;1.8;;;1.4;;
74741;SDS011;76291;48.288;16.314;2024-02-04T21:42:01;1.8;;;1.4;;
74741;SDS011;76291;48.288;16.314;2024-02-04T21:43:01;1.7;;;1.3;;
74741;SDS011;76291;48.288;16.314;2024-02-04T21:44:01;1.7;;;1.3;;
74741;SDS011;76291;48.288;16.314;2024-02-04T21:45:01;1.7;;;1.3;;
74741;SDS011;76291;48.288;16.314;2024-02-04T21:46:01;1.7;;;1.3;;
74741;SDS011;76291;48.288;16.314;2024-02-04T21:47:01;1.7;;;1.3;;
74741;SDS011;76291;48.288;16.314;2024-02-04T21:48:01;3.2;;;1.2;;
74741;SDS011;76291;48.288;16.314;2024-02-04T21:49:01;3.2;;;1.2;;
74741;SDS011;76291;48.288;16.314;2024-02-04T21:50:01;3.2;;;1.2;;
74741;SDS011;76291;48.288;16.314;2024-02-04T21:51:01;3.2;;;1.2;;
74741;SDS011;76291;48.288;16.314;2024-02-04T21:52:01;3.2;;;1.2;;
74741;SDS011;76291;48.288;16.314;2024-02-04T21:53:01;2.7;;;1.4;;
74741;SDS011;76291;48.288;16.314;2024-02-04T21:54:01;2.7;;;1.4;;
74741;SDS011;76291;48.288;16.314;2024-02-04T21:55:01;2.7;;;1.4;;
74741;SDS011;76291;48.288;16.314;2024-02-04T21:56:01;2.7;;;1.4;;
74741;SDS011;76291;48.288;16.314;2024-02-04T21:57:01;2.7;;;1.4;;
74741;SDS011;76291;48.288;16.314;2024-02-04T21:58:01;3.6;;;1.1;;
74741;SDS011;76291;48.288;16.314;2024-02-04T21:59:01;3.6;;;1.1;;
74741;SDS011;76291;48.288;16.314;2024-02-04T22:00:01;3.6;;;1.1;;
74741;SDS011;76291;48.288;16.314;2024-02-04T22:01:01;3.6;;;1.1;;
74741;SDS011;76291;48.288;16.314;2024-02-04T22:02:01;3.6;;;1.1;;
74741;SDS011;76291;48.288;16.314;2024-02-04T22:03:01;2.2;;;1.3;;
74741;SDS011;76291;48.288;16.314;2024-02-04T22:04:01;2.2;;;1.3;;
74741;SDS011;76291;48.288;16.314;2024-02-04T22:05:01;2.2;;;1.3;;
74741;SDS011;76291;48.288;16.314;2024-02-04T22:06:01;2.2;;;1.3;;
74741;SDS011;76291;48.288;16.314;2024-02-04T22:07:01;2.2;;;1.3;;
74741;SDS011;76291;48.288;16.314;2024-02-04T22:08:01;4.4;;;1.2;;
74741;SDS011;76291;48.288;16.314;2024-02-04T22:09:01;4.4;;;1.2;;
74741;SDS011;76291;48.288;16.314;2024-02-04T22:10:01;4.4;;;1.2;;
74741;SDS011;76291;48.288;16.314;2024-02-04T22:11:01;4.4;;;1.2;;
74741;SDS011;76291;48.288;16.314;2024-02-04T22:12:01;4.4;;;1.2;;
74741;SDS011;76291;48.288;16.314;2024-02-04T22:13:01;2.7;;;1.1;;
74741;SDS011;76291;48.288;16.314;2024-02-04T22:14:01;2.7;;;1.1;;
74741;SDS011;76291;48.288;16.314;2024-02-04T22:15:01;2.7;;;1.1;;
74741;SDS011;76291;48.288;16.314;2024-02-04T22:16:01;2.7;;;1.1;;
74741;SDS011;76291;48.288;16.314;2024-02-04T22:17:01;2.7;;;1.1;;
74741;SDS011;76291;48.288;16.314;2024-02-04T22:18:01;2.1;;;1.6;;
74741;SDS011;76291;48.288;16.314;2024-02-04T22:19:01;2.1;;;1.6;;
74741;SDS011;76291;48.288;16.314;2024-02-04T22:20:01;2.1;;;1.6;;
74741;SDS011;76291;48.288;16.314;2024-02-04T22:21:03;2.1;;;1.6;;
74741;SDS011;76291;48.288;16.314;2024-02-04T22:22:01;2.1;;;1.6;;
74741;SDS011;76291;48.288;16.314;2024-02-04T22:23:01;1.9;;;1.2;;
74741;SDS011;76291;48.288;16.314;2024-02-04T22:24:02;1.9;;;1.2;;
74741;SDS011;76291;48.288;16.314;2024-02-04T22:25:01;1.9;;;1.2;;
74741;SDS011;76291;48.288;16.314;2024-02-04T22:26:01;1.9;;;1.2;;
74741;SDS011;76291;48.288;16.314;2024-02-04T22:27:01;1.9;;;1.2;;
74741;SDS011;76291;48.288;16.314;2024-02-04T22:28:01;1.8;;;1.2;;
74741;SDS011;76291;48.288;16.314;2024-02-04T22:29:01;1.8;;;1.2;;
74741;SDS011;76291;48.288;16.314;2024-02-04T22:30:01;1.8;;;1.2;;
74741;SDS011;76291;48.288;16.314;2024-02-04T22:31:01;1.8;;;1.2;;
74741;SDS011;76291;48.288;16.314;2024-02-04T22:32:01;1.8;;;1.2;;
74741;SDS011;76291;48.288;16.314;2024-02-04T22:33:01;2.5;;;1.3;;
74741;SDS011;76291;48.288;16.314;2024-02-04T22:34:01;2.5;;;1.3;;
74741;SDS011;76291;48.288;16.314;2024-02-04T22:35:02;2.5;;;1.3;;
74741;SDS011;76291;48.288;16.314;2024-02-04T22:36:01;2.5;;;1.3;;
74741;SDS011;76291;48.288;16.314;2024-02-04T22:37:01;2.5;;;1.3;;
74741;SDS011;76291;48.288;16.314;2024-02-04T22:38:01;2.0;;;1.1;;
74741;SDS011;76291;48.288;16.314;2024-02-04T22:39:01;2.0;;;1.1;;
74741;SDS011;76291;48.288;16.314;2024-02-04T22:40:01;2.0;;;1.1;;
74741;SDS011;76291;48.288;16.314;2024-02-04T22:41:01;2.0;;;1.1;;
74741;SDS011;76291;48.288;16.314;2024-02-04T22:42:04;2.0;;;1.1;;
74741;SDS011;76291;48.288;16.314;2024-02-04T22:43:01;3.3;;;1.2;;
74741;SDS011;76291;48.288;16.314;2024-02-04T22:44:01;3.3;;;1.2;;
74741;SDS011;76291;48.288;16.314;2024-02-04T22:45:01;3.3;;;1.2;;
74741;SDS011;76291;48.288;16.314;2024-02-04T22:46:02;3.3;;;1.2;;
74741;SDS011;76291;48.288;16.314;2024-02-04T22:47:01;3.3;;;1.2;;
74741;SDS011;76291;48.288;16.314;2024-02-04T22:48:01;1.8;;;1.1;;
74741;SDS011;76291;48.288;16.314;2024-02-04T22:49:01;1.8;;;1.1;;
74741;SDS011;76291;48.288;16.314;2024-02-04T22:50:01;1.8;;;1.1;;
74741;SDS011;76291;48.288;16.314;2024-02-04T22:51:01;1.8;;;1.1;;
74741;SDS011;76291;48.288;16.314;2024-02-04T22:52:01;1.8;;;1.1;;
74741;SDS011;76291;48.288;16.314;2024-02-04T22:53:01;2.1;;;1.1;;
74741;SDS011;76291;48.288;16.314;2024-02-04T22:54:01;2.1;;;1.1;;
74741;SDS011;76291;48.288;16.314;2024-02-04T22:55:01;2.1;;;1.1;;
74741;SDS011;76291;48.288;16.314;2024-02-04T22:56:01;2.1;;;1.1;;
74741;SDS011;76291;48.288;16.314;2024-02-04T22:57:01;2.1;;;1.1;;
74741;SDS011;76291;48.288;16.314;2024-02-04T22:58:01;2.2;;;1.1;;
74741;SDS011;76291;48.288;16.314;2024-02-04T22:59:01;2.2;;;1.1;;
74741;SDS011;76291;48.288;16.314;2024-02-04T23:00:01;2.2;;;1.1;;
74741;SDS011;76291;48.288;16.314;2024-02-04T23:01:01;2.2;;;1.1;;
74741;SDS011;76291;48.288;16.314;2024-02-04T23:02:01;2.2;;;1.1;;
74741;SDS011;76291;48.288;16.314;2024-02-04T23:03:02;1.9;;;1.3;;
74741;SDS011;76291;48.288;16.314;2024-02-04T23:04:01;1.9;;;1.3;;
74741;SDS011;76291;48.288;16.314;2024-02-04T23:05:01;1.9;;;1.3;;
74741;SDS011;76291;48.288;16.314;2024-02-04T23:06:01;1.9;;;1.3;;
74741;SDS011;76291;48.288;16.314;2024-02-04T23:07:01;1.9;;;1.3;;
74741;SDS011;76291;48.288;16.314;2024-02-04T23:08:01;1.9;;;1.3;;
74741;SDS011;76291;48.288;16.314;2024-02-04T23:09:01;1.9;;;1.3;;
74741;SDS011;76291;48.288;16.314;2024-02-04T23:10:01;1.9;;;1.3;;
74741;SDS011;76291;48.288;16.314;2024-02-04T23:11:01;1.9;;;1.3;;
74741;SDS011;76291;48.288;16.314;2024-02-04T23:12:01;1.9;;;1.3;;
74741;SDS011;76291;48.288;16.314;2024-02-04T23:13:01;1.5;;;1.0;;
74741;SDS011;76291;48.288;16.314;2024-02-04T23:14:01;1.5;;;1.0;;
74741;SDS011;76291;48.288;16.314;2024-02-04T23:15:01;1.5;;;1.0;;
74741;SDS011;76291;48.288;16.314;2024-02-04T23:16:01;1.5;;;1.0;;
74741;SDS011;76291;48.288;16.314;2024-02-04T23:17:01;1.5;;;1.0;;
74741;SDS011;76291;48.288;16.314;2024-02-04T23:18:01;1.5;;;1.0;;
74741;SDS011;76291;48.288;16.314;2024-02-04T23:19:01;1.5;;;1.0;;
74741;SDS011;76291;48.288;16.314;2024-02-04T23:20:01;1.5;;;1.0;;
74741;SDS011;76291;48.288;16.314;2024-02-04T23:21:03;1.5;;;1.0;;
74741;SDS011;76291;48.288;16.314;2024-02-04T23:22:03;1.5;;;1.0;;
74741;SDS011;76291;48.288;16.314;2024-02-04T23:23:01;2.0;;;1.1;;
74741;SDS011;76291;48.288;16.314;2024-02-04T23:24:01;2.0;;;1.1;;
74741;SDS011;76291;48.288;16.314;2024-02-04T23:25:01;2.0;;;1.1;;
74741;SDS011;76291;48.288;16.314;2024-02-04T23:26:01;2.0;;;1.1;;
74741;SDS011;76291;48.288;16.314;2024-02-04T23:27:01;2.0;;;1.1;;
74741;SDS011;76291;48.288;16.314;2024-02-04T23:28:01;1.5;;;0.9;;
74741;SDS011;76291;48.288;16.314;2024-02-04T23:29:01;1.5;;;0.9;;
74741;SDS011;76291;48.288;16.314;2024-02-04T23:30:01;1.5;;;0.9;;
74741;SDS011;76291;48.288;16.314;2024-02-04T23:31:01;1.5;;;0.9;;
74741;SDS011;76291;48.288;16.314;2024-02-04T23:32:01;1.5;;;0.9;;
74741;SDS011;76291;48.288;16.314;2024-02-04T23:33:01;1.8;;;0.9;;
74741;SDS011;76291;48.288;16.314;2024-02-04T23:34:01;1.8;;;0.9;;
74741;SDS011;76291;48.288;16.314;2024-02-04T23:35:01;1.8;;;0.9;;
74741;SDS011;76291;48.288;16.314;2024-02-04T23:36:01;1.8;;;0.9;;
74741;SDS011;76291;48.288;16.314;2024-02-04T23:37:01;1.8;;;0.9;;
74741;SDS011;76291;48.288;16.314;2024-02-04T23:38:01;2.0;;;1.0;;
74741;SDS011;76291;48.288;16.314;2024-02-04T23:39:01;2.0;;;1.0;;
74741;SDS011;76291;48.288;16.314;2024-02-04T23:40:01;2.0;;;1.0;;
74741;SDS011;76291;48.288;16.314;2024-02-04T23:41:01;2.0;;;1.0;;
74741;SDS011;76291;48.288;16.314;2024-02-04T23:42:01;2.0;;;1.0;;
74741;SDS011;76291;48.288;16.314;2024-02-04T23:43:01;2.0;;;1.1;;
74741;SDS011;76291;48.288;16.314;2024-02-04T23:44:01;2.0;;;1.1;;
74741;SDS011;76291;48.288;16.314;2024-02-04T23:45:01;2.0;;;1.1;;
74741;SDS011;76291;48.288;16.314;2024-02-04T23:46:01;2.0;;;1.1;;
74741;SDS011;76291;48.288;16.314;2024-02-04T23:47:01;2.0;;;1.1;;
74741;SDS011;76291;48.288;16.314;2024-02-04T23:48:01;1.6;;;1.0;;
74741;SDS011;76291;48.288;16.314;2024-02-04T23:49:01;1.6;;;1.0;;
74741;SDS011;76291;48.288;16.314;2024-02-04T23:50:01;1.6;;;1.0;;
74741;SDS011;76291;48.288;16.314;2024-02-04T23:51:01;1.6;;;1.0;;
74741;SDS011;76291;48.288;16.314;2024-02-04T23:52:01;1.6;;;1.0;;
74741;SDS011;76291;48.288;16.314;2024-02-04T23:53:02;1.5;;;1.1;;
74741;SDS011;76291;48.288;16.314;2024-02-04T23:54:01;1.5;;;1.1;;
74741;SDS011;76291;48.288;16.314;2024-02-04T23:55:01;1.5;;;1.1;;
74741;SDS011;76291;48.288;16.314;2024-02-04T23:56:01;1.5;;;1.1;;
74741;SDS011;76291;48.288;16.314;2024-02-04T23:57:04;1.5;;;1.1;;
74741;SDS011;76291;48.288;16.314;2024-02-04T23:58:01;1.5;;;1.0;;
74741;SDS011;76291;48.288;16.314;2024-02-04T23:59:01;1.5;;;1.0;;
